sensor_id;sensor_type;location;lat;lon;timestamp;pressure;altitude;pressure_sealevel;temperature;humidity
15193;BME280;7697;51.630;7.484;2024-03-06T00:03:27;-17342.88;;;8.01;100.00
15193;BME280;7697;51.630;7.484;2024-03-06T00:08:30;-17344.53;;;8.06;100.00
15193;BME280;7697;51.630;7.484;2024-03-06T00:13:32;-17344.88;;;8.07;100.00
15193;BME280;7697;51.630;7.484;2024-03-06T00:18:34;-17345.56;;;8.09;100.00
15193;BME280;7697;51.630;7.484;2024-03-06T00:23:38;-17344.53;;;8.06;100.00
15193;BME280;7697;51.630;7.484;2024-03-06T00:28:40;-17341.34;;;7.97;100.00
15193;BME280;7697;51.630;7.484;2024-03-06T00:33:42;-17336.84;;;7.83;100.00
15193;BME280;7697;51.630;7.484;2024-03-06T00:38:46;-17337.66;;;7.85;100.00
15193;BME280;7697;51.630;7.484;2024-03-06T00:43:48;-17337.34;;;7.84;100.00
15193;BME280;7697;51.630;7.484;2024-03-06T00:48:50;-17337.00;;;7.83;100.00
15193;BME280;7697;51.630;7.484;2024-03-06T00:53:53;-17337.16;;;7.84;100.00
15193;BME280;7697;51.630;7.484;2024-03-06T00:58:54;-17339.00;;;7.89;100.00
15193;BME280;7697;51.630;7.484;2024-03-06T01:03:57;-17340.03;;;7.93;100.00
15193;BME280;7697;51.630;7.484;2024-03-06T01:09:00;-17339.84;;;7.92;100.00
15193;BME280;7697;51.630;7.484;2024-03-06T01:14:02;-17341.19;;;7.96;100.00
15193;BME280;7697;51.630;7.484;2024-03-06T01:19:05;-17338.84;;;7.89;100.00
15193;BME280;7697;51.630;7.484;2024-03-06T01:24:08;-17338.84;;;7.89;100.00
15193;BME280;7697;51.630;7.484;2024-03-06T01:29:10;-17338.34;;;7.87;100.00
15193;BME280;7697;51.630;7.484;2024-03-06T01:34:12;-17334.16;;;7.75;100.00
15193;BME280;7697;51.630;7.484;2024-03-06T01:39:15;-17333.47;;;7.73;100.00
15193;BME280;7697;51.630;7.484;2024-03-06T01:44:18;-17333.66;;;7.73;100.00
15193;BME280;7697;51.630;7.484;2024-03-06T01:49:21;-17333.81;;;7.74;100.00
15193;BME280;7697;51.630;7.484;2024-03-06T01:54:25;-17332.81;;;7.71;100.00
15193;BME280;7697;51.630;7.484;2024-03-06T01:59:28;-17332.13;;;7.69;100.00
15193;BME280;7697;51.630;7.484;2024-03-06T02:04:31;-17331.47;;;7.67;100.00
15193;BME280;7697;51.630;7.484;2024-03-06T02:09:35;-17328.78;;;7.59;100.00
15193;BME280;7697;51.630;7.484;2024-03-06T02:14:38;-17329.13;;;7.60;100.00
15193;BME280;7697;51.630;7.484;2024-03-06T02:19:41;-17327.44;;;7.54;100.00
15193;BME280;7697;51.630;7.484;2024-03-06T02:24:48;-17326.59;;;7.52;100.00
15193;BME280;7697;51.630;7.484;2024-03-06T02:29:50;-17325.25;;;7.48;100.00
15193;BME280;7697;51.630;7.484;2024-03-06T02:34:51;-17326.44;;;7.51;100.00
15193;BME280;7697;51.630;7.484;2024-03-06T02:39:55;-17327.28;;;7.54;100.00
15193;BME280;7697;51.630;7.484;2024-03-06T02:44:57;-17326.09;;;7.50;100.00
15193;BME280;7697;51.630;7.484;2024-03-06T02:49:59;-17322.41;;;7.39;100.00
15193;BME280;7697;51.630;7.484;2024-03-06T02:55:04;-17324.94;;;7.47;100.00
15193;BME280;7697;51.630;7.484;2024-03-06T03:00:07;-17324.09;;;7.44;100.00
15193;BME280;7697;51.630;7.484;2024-03-06T03:05:13;-17322.56;;;7.40;100.00
15193;BME280;7697;51.630;7.484;2024-03-06T03:10:18;-17323.41;;;7.42;100.00
15193;BME280;7697;51.630;7.484;2024-03-06T03:15:22;-17320.72;;;7.34;100.00
15193;BME280;7697;51.630;7.484;2024-03-06T03:20:24;-17319.72;;;7.31;100.00
15193;BME280;7697;51.630;7.484;2024-03-06T03:25:27;-17317.03;;;7.23;100.00
15193;BME280;7697;51.630;7.484;2024-03-06T03:30:30;-17315.53;;;7.19;100.00
15193;BME280;7697;51.630;7.484;2024-03-06T03:35:32;-17314.03;;;7.14;100.00
15193;BME280;7697;51.630;7.484;2024-03-06T03:40:36;-17312.69;;;7.10;100.00
15193;BME280;7697;51.630;7.484;2024-03-06T03:45:38;-17313.03;;;7.11;100.00
15193;BME280;7697;51.630;7.484;2024-03-06T03:50:40;-17309.66;;;7.01;100.00
15193;BME280;7697;51.630;7.484;2024-03-06T03:55:44;-17307.31;;;6.94;100.00
15193;BME280;7697;51.630;7.484;2024-03-06T04:00:48;-17304.81;;;6.86;100.00
15193;BME280;7697;51.630;7.484;2024-03-06T04:05:53;-17303.13;;;6.81;100.00
15193;BME280;7697;51.630;7.484;2024-03-06T04:10:56;-17298.94;;;6.68;100.00
15193;BME280;7697;51.630;7.484;2024-03-06T04:16:00;-17295.91;;;6.59;100.00
15193;BME280;7697;51.630;7.484;2024-03-06T04:21:04;-17291.72;;;6.47;100.00
15193;BME280;7697;51.630;7.484;2024-03-06T04:26:09;-17289.88;;;6.41;100.00
15193;BME280;7697;51.630;7.484;2024-03-06T04:31:11;-17287.88;;;6.35;100.00
15193;BME280;7697;51.630;7.484;2024-03-06T04:36:15;-17285.84;;;6.29;100.00
15193;BME280;7697;51.630;7.484;2024-03-06T04:41:24;-17286.34;;;6.30;100.00
15193;BME280;7697;51.630;7.484;2024-03-06T04:46:26;-17284.19;;;6.24;100.00
15193;BME280;7697;51.630;7.484;2024-03-06T04:51:28;-17282.66;;;6.19;100.00
15193;BME280;7697;51.630;7.484;2024-03-06T05:17:12;-17278.16;;;6.06;100.00
15193;BME280;7697;51.630;7.484;2024-03-06T05:22:16;-17274.13;;;5.93;100.00
15193;BME280;7697;51.630;7.484;2024-03-06T05:27:19;-17277.13;;;6.02;100.00
15193;BME280;7697;51.630;7.484;2024-03-06T05:32:24;-17277.13;;;6.02;100.00
15193;BME280;7697;51.630;7.484;2024-03-06T05:37:26;-17273.28;;;5.91;100.00
15193;BME280;7697;51.630;7.484;2024-03-06T05:42:35;-17275.47;;;5.97;100.00
15193;BME280;7697;51.630;7.484;2024-03-06T05:47:40;-17273.44;;;5.91;100.00
15193;BME280;7697;51.630;7.484;2024-03-06T05:52:41;-17272.09;;;5.87;100.00
15193;BME280;7697;51.630;7.484;2024-03-06T05:57:43;-17274.47;;;5.94;100.00
15193;BME280;7697;51.630;7.484;2024-03-06T06:02:48;-17270.25;;;5.82;100.00
15193;BME280;7697;51.630;7.484;2024-03-06T06:07:50;-17271.44;;;5.85;100.00
15193;BME280;7697;51.630;7.484;2024-03-06T06:12:56;-17271.25;;;5.85;100.00
15193;BME280;7697;51.630;7.484;2024-03-06T06:17:59;-17271.59;;;5.86;100.00
15193;BME280;7697;51.630;7.484;2024-03-06T06:23:01;-17272.28;;;5.88;100.00
15193;BME280;7697;51.630;7.484;2024-03-06T06:28:03;-17271.09;;;5.84;100.00
15193;BME280;7697;51.630;7.484;2024-03-06T06:33:06;-17270.25;;;5.82;100.00
15193;BME280;7697;51.630;7.484;2024-03-06T06:38:08;-17268.59;;;5.77;100.00
15193;BME280;7697;51.630;7.484;2024-03-06T06:43:10;-17268.41;;;5.76;100.00
15193;BME280;7697;51.630;7.484;2024-03-06T06:48:13;-17267.25;;;5.73;100.00
15193;BME280;7697;51.630;7.484;2024-03-06T06:53:15;-17268.75;;;5.77;100.00
15193;BME280;7697;51.630;7.484;2024-03-06T06:58:17;-17267.41;;;5.73;100.00
15193;BME280;7697;51.630;7.484;2024-03-06T07:03:22;-17267.06;;;5.72;100.00
15193;BME280;7697;51.630;7.484;2024-03-06T07:08:29;-17267.41;;;5.73;100.00
15193;BME280;7697;51.630;7.484;2024-03-06T07:13:31;-17268.25;;;5.76;100.00
15193;BME280;7697;51.630;7.484;2024-03-06T07:18:34;-17266.75;;;5.71;100.00
15193;BME280;7697;51.630;7.484;2024-03-06T07:23:36;-17267.75;;;5.74;100.00
15193;BME280;7697;51.630;7.484;2024-03-06T07:28:37;-17268.25;;;5.76;100.00
15193;BME280;7697;51.630;7.484;2024-03-06T07:33:40;-17269.25;;;5.79;100.00
15193;BME280;7697;51.630;7.484;2024-03-06T07:38:42;-17269.94;;;5.81;100.00
15193;BME280;7697;51.630;7.484;2024-03-06T07:43:44;-17269.75;;;5.80;100.00
15193;BME280;7697;51.630;7.484;2024-03-06T07:48:47;-17272.44;;;5.88;100.00
15193;BME280;7697;51.630;7.484;2024-03-06T07:53:49;-17275.63;;;5.98;100.00
15193;BME280;7697;51.630;7.484;2024-03-06T07:58:51;-17274.47;;;5.94;100.00
15193;BME280;7697;51.630;7.484;2024-03-06T08:03:55;-17274.78;;;5.95;100.00
15193;BME280;7697;51.630;7.484;2024-03-06T08:08:58;-17278.81;;;6.08;100.00
15193;BME280;7697;51.630;7.484;2024-03-06T08:14:02;-17281.00;;;6.14;100.00
15193;BME280;7697;51.630;7.484;2024-03-06T08:19:05;-17287.03;;;6.32;100.00
15193;BME280;7697;51.630;7.484;2024-03-06T08:24:07;-17289.03;;;6.38;100.00
15193;BME280;7697;51.630;7.484;2024-03-06T08:29:09;-17292.22;;;6.48;100.00
15193;BME280;7697;51.630;7.484;2024-03-06T08:34:12;-17302.63;;;6.80;100.00
15193;BME280;7697;51.630;7.484;2024-03-06T08:39:13;-17317.38;;;7.24;100.00
15193;BME280;7697;51.630;7.484;2024-03-06T08:44:16;-17332.47;;;7.70;100.00
15193;BME280;7697;51.630;7.484;2024-03-06T08:49:19;-17346.22;;;8.11;100.00
15193;BME280;7697;51.630;7.484;2024-03-06T08:54:21;-17362.00;;;8.59;100.00
15193;BME280;7697;51.630;7.484;2024-03-06T08:59:23;-17376.59;;;9.03;100.00
15193;BME280;7697;51.630;7.484;2024-03-06T09:04:26;-17391.00;;;9.47;100.00
15193;BME280;7697;51.630;7.484;2024-03-06T09:09:28;-17398.91;;;9.70;100.00
15193;BME280;7697;51.630;7.484;2024-03-06T09:14:29;-17408.63;;;10.00;100.00
15193;BME280;7697;51.630;7.484;2024-03-06T09:19:33;-17417.69;;;10.27;100.00
15193;BME280;7697;51.630;7.484;2024-03-06T09:24:35;-17423.91;;;10.46;100.00
15193;BME280;7697;51.630;7.484;2024-03-06T09:29:38;-17434.63;;;10.78;100.00
15193;BME280;7697;51.630;7.484;2024-03-06T09:34:41;-17448.72;;;11.21;100.00
15193;BME280;7697;51.630;7.484;2024-03-06T09:39:43;-17459.97;;;11.55;100.00
15193;BME280;7697;51.630;7.484;2024-03-06T09:44:47;-17475.22;;;12.01;100.00
15193;BME280;7697;51.630;7.484;2024-03-06T09:49:51;-17479.59;;;12.14;100.00
15193;BME280;7697;51.630;7.484;2024-03-06T09:54:54;-17487.81;;;12.39;99.26
15193;BME280;7697;51.630;7.484;2024-03-06T09:59:56;-17492.50;;;12.53;98.41
15193;BME280;7697;51.630;7.484;2024-03-06T10:04:59;-17503.75;;;12.87;97.71
15193;BME280;7697;51.630;7.484;2024-03-06T10:10:00;-17510.13;;;13.06;97.87
15193;BME280;7697;51.630;7.484;2024-03-06T10:15:03;-17511.81;;;13.11;95.33
15193;BME280;7697;51.630;7.484;2024-03-06T10:20:18;-17503.59;;;12.87;94.42
15193;BME280;7697;51.630;7.484;2024-03-06T10:25:22;-17494.88;;;12.60;95.35
15193;BME280;7697;51.630;7.484;2024-03-06T10:30:24;-17501.91;;;12.82;96.04
15193;BME280;7697;51.630;7.484;2024-03-06T10:35:28;-17495.53;;;12.62;96.65
15193;BME280;7697;51.630;7.484;2024-03-06T10:40:31;-17487.47;;;12.38;97.74
15193;BME280;7697;51.630;7.484;2024-03-06T10:45:40;-17480.28;;;12.16;97.90
15193;BME280;7697;51.630;7.484;2024-03-06T10:50:46;-17483.44;;;12.26;97.37
15193;BME280;7697;51.630;7.484;2024-03-06T10:55:49;-17506.94;;;12.97;96.59
15193;BME280;7697;51.630;7.484;2024-03-06T11:00:51;-17534.81;;;13.81;94.19
15193;BME280;7697;51.630;7.484;2024-03-06T11:05:55;-17545.88;;;14.14;92.44
15193;BME280;7697;51.630;7.484;2024-03-06T11:11:19;-17529.09;;;13.64;91.24
15193;BME280;7697;51.630;7.484;2024-03-06T11:16:27;-17518.88;;;13.33;94.70
15193;BME280;7697;51.630;7.484;2024-03-06T11:21:31;-17514.34;;;13.19;94.58
15193;BME280;7697;51.630;7.484;2024-03-06T11:26:35;-17507.63;;;12.99;94.85
15193;BME280;7697;51.630;7.484;2024-03-06T11:31:37;-17510.81;;;13.08;95.10
15193;BME280;7697;51.630;7.484;2024-03-06T11:36:40;-17520.88;;;13.39;93.34
15193;BME280;7697;51.630;7.484;2024-03-06T11:41:47;-17517.19;;;13.28;92.64
15193;BME280;7697;51.630;7.484;2024-03-06T11:46:57;-17507.44;;;12.98;91.28
15193;BME280;7697;51.630;7.484;2024-03-06T11:52:03;-17490.66;;;12.48;91.68
15193;BME280;7697;51.630;7.484;2024-03-06T11:57:05;-17480.44;;;12.17;93.91
15193;BME280;7697;51.630;7.484;2024-03-06T12:02:07;-17478.59;;;12.11;92.62
15193;BME280;7697;51.630;7.484;2024-03-06T12:07:11;-17482.28;;;12.22;93.29
15193;BME280;7697;51.630;7.484;2024-03-06T12:12:14;-17495.19;;;12.61;93.37
15193;BME280;7697;51.630;7.484;2024-03-06T12:17:15;-17519.53;;;13.35;91.20
15193;BME280;7697;51.630;7.484;2024-03-06T12:22:24;-17541.19;;;14.00;89.71
15193;BME280;7697;51.630;7.484;2024-03-06T12:27:26;-17557.97;;;14.51;87.19
15193;BME280;7697;51.630;7.484;2024-03-06T12:32:28;-17561.31;;;14.61;86.48
15193;BME280;7697;51.630;7.484;2024-03-06T12:37:32;-17567.69;;;14.80;85.04
15193;BME280;7697;51.630;7.484;2024-03-06T12:42:34;-17571.72;;;14.92;82.78
15193;BME280;7697;51.630;7.484;2024-03-06T12:47:36;-17567.19;;;14.79;82.99
15193;BME280;7697;51.630;7.484;2024-03-06T12:52:39;-17556.78;;;14.47;83.91
15193;BME280;7697;51.630;7.484;2024-03-06T12:57:41;-17547.72;;;14.20;83.19
15193;BME280;7697;51.630;7.484;2024-03-06T13:02:44;-17554.94;;;14.42;82.49
15193;BME280;7697;51.630;7.484;2024-03-06T13:07:47;-17562.31;;;14.64;80.38
15193;BME280;7697;51.630;7.484;2024-03-06T13:12:49;-17569.03;;;14.84;80.09
15193;BME280;7697;51.630;7.484;2024-03-06T13:17:51;-17583.81;;;15.29;80.34
15193;BME280;7697;51.630;7.484;2024-03-06T13:22:54;-17595.38;;;15.64;77.81
15193;BME280;7697;51.630;7.484;2024-03-06T13:27:56;-17593.53;;;15.58;76.81
15193;BME280;7697;51.630;7.484;2024-03-06T13:32:59;-17600.75;;;15.80;76.01
15193;BME280;7697;51.630;7.484;2024-03-06T13:38:02;-17602.09;;;15.84;71.62
15193;BME280;7697;51.630;7.484;2024-03-06T13:43:04;-17603.78;;;15.89;71.12
15193;BME280;7697;51.630;7.484;2024-03-06T13:48:14;-17605.78;;;15.95;71.36
15193;BME280;7697;51.630;7.484;2024-03-06T13:53:18;-17608.97;;;16.05;69.35
15193;BME280;7697;51.630;7.484;2024-03-06T13:58:20;-17615.00;;;16.23;69.39
15193;BME280;7697;51.630;7.484;2024-03-06T14:03:21;-17617.88;;;16.32;70.51
15193;BME280;7697;51.630;7.484;2024-03-06T14:08:25;-17618.72;;;16.34;70.33
15193;BME280;7697;51.630;7.484;2024-03-06T14:13:27;-17620.03;;;16.38;70.07
15193;BME280;7697;51.630;7.484;2024-03-06T14:18:29;-17623.06;;;16.47;70.40
15193;BME280;7697;51.630;7.484;2024-03-06T14:23:32;-17619.22;;;16.36;71.60
15193;BME280;7697;51.630;7.484;2024-03-06T14:28:34;-17606.97;;;15.99;71.78
15193;BME280;7697;51.630;7.484;2024-03-06T14:33:35;-17593.19;;;15.57;73.12
15193;BME280;7697;51.630;7.484;2024-03-06T14:38:39;-17588.34;;;15.43;73.89
15193;BME280;7697;51.630;7.484;2024-03-06T14:43:40;-17582.13;;;15.24;75.71
15193;BME280;7697;51.630;7.484;2024-03-06T14:48:42;-17574.41;;;15.00;77.27
15193;BME280;7697;51.630;7.484;2024-03-06T14:53:46;-17569.53;;;14.86;77.29
15193;BME280;7697;51.630;7.484;2024-03-06T14:58:48;-17563.16;;;14.67;77.51
15193;BME280;7697;51.630;7.484;2024-03-06T15:03:50;-17559.47;;;14.55;77.99
15193;BME280;7697;51.630;7.484;2024-03-06T15:08:53;-17550.91;;;14.30;78.47
15193;BME280;7697;51.630;7.484;2024-03-06T15:13:56;-17548.06;;;14.21;79.29
15193;BME280;7697;51.630;7.484;2024-03-06T15:18:57;-17549.91;;;14.26;78.58
15193;BME280;7697;51.630;7.484;2024-03-06T15:24:00;-17553.25;;;14.37;77.98
15193;BME280;7697;51.630;7.484;2024-03-06T15:29:02;-17551.41;;;14.31;77.99
15193;BME280;7697;51.630;7.484;2024-03-06T15:34:05;-17547.38;;;14.19;79.15
15193;BME280;7697;51.630;7.484;2024-03-06T15:39:10;-17545.88;;;14.14;79.63
15193;BME280;7697;51.630;7.484;2024-03-06T15:44:12;-17541.19;;;14.00;78.93
15193;BME280;7697;51.630;7.484;2024-03-06T15:49:19;-17538.81;;;13.93;79.65
15193;BME280;7697;51.630;7.484;2024-03-06T15:54:23;-17531.94;;;13.72;79.68
15193;BME280;7697;51.630;7.484;2024-03-06T15:59:25;-17529.78;;;13.66;80.87
15193;BME280;7697;51.630;7.484;2024-03-06T16:04:28;-17522.88;;;13.45;80.59
15193;BME280;7697;51.630;7.484;2024-03-06T16:09:31;-17520.19;;;13.37;81.56
15193;BME280;7697;51.630;7.484;2024-03-06T16:14:33;-17517.84;;;13.30;81.53
15193;BME280;7697;51.630;7.484;2024-03-06T16:19:35;-17516.50;;;13.26;81.94
15193;BME280;7697;51.630;7.484;2024-03-06T16:24:39;-17513.00;;;13.15;82.20
15193;BME280;7697;51.630;7.484;2024-03-06T16:29:40;-17507.63;;;12.99;82.68
15193;BME280;7697;51.630;7.484;2024-03-06T16:34:42;-17505.59;;;12.93;83.12
15193;BME280;7697;51.630;7.484;2024-03-06T16:39:45;-17498.72;;;12.72;83.97
15193;BME280;7697;51.630;7.484;2024-03-06T16:44:48;-17494.53;;;12.59;83.99
15193;BME280;7697;51.630;7.484;2024-03-06T16:49:49;-17491.50;;;12.50;84.72
15193;BME280;7697;51.630;7.484;2024-03-06T16:54:52;-17486.47;;;12.35;84.71
15193;BME280;7697;51.630;7.484;2024-03-06T16:59:54;-17482.13;;;12.22;85.20
15193;BME280;7697;51.630;7.484;2024-03-06T17:04:56;-17478.09;;;12.10;85.66
15193;BME280;7697;51.630;7.484;2024-03-06T17:09:59;-17475.22;;;12.01;86.23
15193;BME280;7697;51.630;7.484;2024-03-06T17:15:01;-17473.38;;;11.95;86.64
15193;BME280;7697;51.630;7.484;2024-03-06T17:20:04;-17469.19;;;11.83;86.54
15193;BME280;7697;51.630;7.484;2024-03-06T17:25:08;-17463.47;;;11.65;86.85
15193;BME280;7697;51.630;7.484;2024-03-06T17:30:10;-17458.63;;;11.51;87.46
15193;BME280;7697;51.630;7.484;2024-03-06T17:35:15;-17455.59;;;11.42;87.84
15193;BME280;7697;51.630;7.484;2024-03-06T17:40:19;-17450.91;;;11.27;88.58
15193;BME280;7697;51.630;7.484;2024-03-06T17:45:20;-17446.53;;;11.14;89.35
15193;BME280;7697;51.630;7.484;2024-03-06T17:50:22;-17440.66;;;10.97;89.31
15193;BME280;7697;51.630;7.484;2024-03-06T17:55:26;-17440.50;;;10.96;89.87
15193;BME280;7697;51.630;7.484;2024-03-06T18:00:27;-17438.00;;;10.88;90.01
15193;BME280;7697;51.630;7.484;2024-03-06T18:05:29;-17435.81;;;10.82;90.38
15193;BME280;7697;51.630;7.484;2024-03-06T18:10:32;-17432.63;;;10.72;90.43
15193;BME280;7697;51.630;7.484;2024-03-06T18:15:34;-17427.91;;;10.58;90.47
15193;BME280;7697;51.630;7.484;2024-03-06T18:20:36;-17424.22;;;10.47;91.18
15193;BME280;7697;51.630;7.484;2024-03-06T18:25:39;-17423.72;;;10.45;90.94
15193;BME280;7697;51.630;7.484;2024-03-06T18:30:41;-17419.53;;;10.33;91.18
15193;BME280;7697;51.630;7.484;2024-03-06T18:35:43;-17419.38;;;10.32;91.29
15193;BME280;7697;51.630;7.484;2024-03-06T18:40:46;-17415.50;;;10.21;91.60
15193;BME280;7697;51.630;7.484;2024-03-06T18:45:48;-17413.81;;;10.15;91.95
15193;BME280;7697;51.630;7.484;2024-03-06T18:50:50;-17410.13;;;10.04;92.04
15193;BME280;7697;51.630;7.484;2024-03-06T18:55:53;-17407.44;;;9.96;92.15
15193;BME280;7697;51.630;7.484;2024-03-06T19:00:55;-17404.59;;;9.88;92.28
15193;BME280;7697;51.630;7.484;2024-03-06T19:05:57;-17401.06;;;9.77;92.54
15193;BME280;7697;51.630;7.484;2024-03-06T19:11:00;-17400.06;;;9.74;92.63
15193;BME280;7697;51.630;7.484;2024-03-06T19:16:01;-17397.38;;;9.66;92.87
15193;BME280;7697;51.630;7.484;2024-03-06T19:21:04;-17395.53;;;9.60;92.99
15193;BME280;7697;51.630;7.484;2024-03-06T19:26:07;-17391.84;;;9.49;93.13
15193;BME280;7697;51.630;7.484;2024-03-06T19:31:09;-17388.50;;;9.39;93.63
15193;BME280;7697;51.630;7.484;2024-03-06T19:36:11;-17387.50;;;9.36;94.05
15193;BME280;7697;51.630;7.484;2024-03-06T19:41:14;-17386.16;;;9.32;94.59
15193;BME280;7697;51.630;7.484;2024-03-06T19:46:15;-17382.63;;;9.21;94.29
15193;BME280;7697;51.630;7.484;2024-03-06T19:51:17;-17381.63;;;9.18;94.54
15193;BME280;7697;51.630;7.484;2024-03-06T19:56:20;-17379.09;;;9.11;95.10
15193;BME280;7697;51.630;7.484;2024-03-06T20:01:24;-17376.91;;;9.04;95.33
15193;BME280;7697;51.630;7.484;2024-03-06T20:06:26;-17373.56;;;8.94;95.06
15193;BME280;7697;51.630;7.484;2024-03-06T20:11:32;-17370.38;;;8.84;95.61
15193;BME280;7697;51.630;7.484;2024-03-06T20:16:34;-17368.53;;;8.79;95.38
15193;BME280;7697;51.630;7.484;2024-03-06T20:21:36;-17366.69;;;8.73;95.97
15193;BME280;7697;51.630;7.484;2024-03-06T20:26:40;-17365.00;;;8.68;95.94
15193;BME280;7697;51.630;7.484;2024-03-06T20:31:42;-17362.00;;;8.59;95.99
15193;BME280;7697;51.630;7.484;2024-03-06T20:36:44;-17360.66;;;8.55;95.84
15193;BME280;7697;51.630;7.484;2024-03-06T20:41:48;-17358.66;;;8.49;96.56
15193;BME280;7697;51.630;7.484;2024-03-06T20:46:49;-17355.78;;;8.40;96.07
15193;BME280;7697;51.630;7.484;2024-03-06T20:51:51;-17354.28;;;8.36;96.83
15193;BME280;7697;51.630;7.484;2024-03-06T20:56:54;-17352.59;;;8.31;96.78
15193;BME280;7697;51.630;7.484;2024-03-06T21:01:56;-17351.09;;;8.26;96.24
15193;BME280;7697;51.630;7.484;2024-03-06T21:06:58;-17348.22;;;8.17;97.36
15193;BME280;7697;51.630;7.484;2024-03-06T21:12:01;-17345.38;;;8.09;97.40
15193;BME280;7697;51.630;7.484;2024-03-06T21:17:04;-17344.22;;;8.05;96.82
15193;BME280;7697;51.630;7.484;2024-03-06T21:22:07;-17339.34;;;7.90;96.90
15193;BME280;7697;51.630;7.484;2024-03-06T21:27:10;-17337.16;;;7.84;97.17
15193;BME280;7697;51.630;7.484;2024-03-06T21:32:13;-17336.66;;;7.82;97.45
15193;BME280;7697;51.630;7.484;2024-03-06T21:37:15;-17334.66;;;7.76;97.59
15193;BME280;7697;51.630;7.484;2024-03-06T21:42:19;-17334.66;;;7.76;97.88
15193;BME280;7697;51.630;7.484;2024-03-06T21:47:21;-17330.13;;;7.63;97.38
15193;BME280;7697;51.630;7.484;2024-03-06T21:52:22;-17328.13;;;7.57;97.81
15193;BME280;7697;51.630;7.484;2024-03-06T21:57:26;-17325.25;;;7.48;97.67
15193;BME280;7697;51.630;7.484;2024-03-06T22:02:28;-17323.91;;;7.44;97.90
15193;BME280;7697;51.630;7.484;2024-03-06T22:07:30;-17320.72;;;7.34;97.96
15193;BME280;7697;51.630;7.484;2024-03-06T22:12:33;-17318.38;;;7.27;97.63
15193;BME280;7697;51.630;7.484;2024-03-06T22:17:34;-17314.88;;;7.16;98.04
15193;BME280;7697;51.630;7.484;2024-03-06T22:22:37;-17312.84;;;7.10;98.54
15193;BME280;7697;51.630;7.484;2024-03-06T22:27:40;-17311.19;;;7.05;99.33
15193;BME280;7697;51.630;7.484;2024-03-06T22:32:42;-17311.00;;;7.05;99.54
15193;BME280;7697;51.630;7.484;2024-03-06T22:37:44;-17312.34;;;7.09;99.88
15193;BME280;7697;51.630;7.484;2024-03-06T22:42:47;-17310.69;;;7.04;99.31
15193;BME280;7697;51.630;7.484;2024-03-06T22:47:49;-17310.00;;;7.02;99.95
15193;BME280;7697;51.630;7.484;2024-03-06T22:52:51;-17308.81;;;6.98;100.00
15193;BME280;7697;51.630;7.484;2024-03-06T22:57:54;-17307.81;;;6.95;100.00
15193;BME280;7697;51.630;7.484;2024-03-06T23:02:59;-17307.50;;;6.94;100.00
15193;BME280;7697;51.630;7.484;2024-03-06T23:08:02;-17307.16;;;6.93;100.00
15193;BME280;7697;51.630;7.484;2024-03-06T23:13:06;-17306.16;;;6.90;100.00
15193;BME280;7697;51.630;7.484;2024-03-06T23:18:08;-17304.31;;;6.85;100.00
15193;BME280;7697;51.630;7.484;2024-03-06T23:23:10;-17303.63;;;6.83;100.00
15193;BME280;7697;51.630;7.484;2024-03-06T23:28:14;-17303.63;;;6.83;100.00
15193;BME280;7697;51.630;7.484;2024-03-06T23:33:16;-17303.63;;;6.83;100.00
15193;BME280;7697;51.630;7.484;2024-03-06T23:38:18;-17302.13;;;6.78;100.00
15193;BME280;7697;51.630;7.484;2024-03-06T23:43:21;-17302.13;;;6.78;100.00
15193;BME280;7697;51.630;7.484;2024-03-06T23:48:22;-17302.28;;;6.78;100.00
15193;BME280;7697;51.630;7.484;2024-03-06T23:53:24;-17301.13;;;6.75;100.00
15193;BME280;7697;51.630;7.484;2024-03-06T23:58:27;-17300.28;;;6.72;100.00
